Bode, IA (50519)

05:16 CDT le 28 août 2016 (GMT -0500)
SW Ottosen | | Change Station
Avis météorologiques actifs: Special Statement

Alt. 1175 ft 42.86 °N, 94.42 °W | Updated 1 second ago

Clear
Ciel dégagé
62.8 ° F
Paraît 62.8 ° F
N
1.1
Vent Variable Vent de SE
Gusts 2.5 mph

Aujourd'hui
Haut(e) -- | Bas -- ° F
--% Risque de précip.
Hier
Haut(e) -- | Bas -- ° F
Precip. -- pouce
Pression 30.11 pouce
Visibilité 5.0 Miles terrestres
Nuages Ciel dégagé
Point de rosée 62 ° F
Humidité 97%
Précipitations 0.00 pouce
Profondeur de la couche neigeuse Non disponible.
6:38 AM 7:57 PM
Lune descendante, 17% visible
METAR KAXA 280955Z AUTO 15005KT 5SM BR CLR 18/18 A3011 RMK AO2
Pression 30.11 pouce
Visibilité 5.0 Miles terrestres
Nuages Ciel dégagé
Point de rosée 62 ° F
Humidité 97%
Précipitations 0.00 pouce
Profondeur de la couche neigeuse Non disponible.
6:38 AM 7:57 PM
Lune descendante, 17% visible
METAR KAXA 280955Z AUTO 15005KT 5SM BR CLR 18/18 A3011 RMK AO2

10-Day Weather Forecast

Almanac

Astronomie

Aug. 28, 2016 Lever Coucher
Temps réel
Crépuscule civil
Crépuscule nautique
Crépuscule astronomique
Lune
Durée de lumière visible
Longueur du jour
Tomorrow will be .
, % of the Moon is Illuminated

Extrêmes aujourd'hui

State Highs State Lows

Community

WunderPhotos

Upload Photos

1,935,540 Photos téléchargées !

WunderBlog® & News

Nearby

Qualité de l'air

  Qualité de l'air Indice de la qualité de l'air Polluant
Not available.

Épaisseur de neige

Station Depth Altitude

Activité sismique

Ville Distance Mag. Time & Date
Minimum magnitude displayed is 2.5.

Températures des eaux côtières

Lieu Température

Stations

Stations météo à proximité

Emplacement de la station Température Refroidissement éolien Point de rosée Humidité Vent Precip. Alt. Mise à jour Type
                   

Watches & Warnings

Special Statement
Issued: 03:55 CDT Aug. 28, 2016 – National Weather Service

... Locally dense fog this morning...

Fog continues to expand across central and north central Iowa. A
few locations including Mason City... Ames and Carroll have had
visibilities down to one quarter mile or less. The areal coverage
of the dense fog is expected to expand over the next several
hours and if this occurs... a dense fog advisory may be required.
Anyone traveling should be prepared for rapid reductions in
visibility.